Time;durP1;ratioP1;P1;durP2;ratioP2;P2;SDS_P1;SDS_P2;PMS_P1;PMS_P2;Temp;Humidity;BMP_temperature;BMP_pressure;BME280_temperature;BME280_humidity;BME280_pressure;Samples;Min_cycle;Max_cycle;Signal;HPM_P1;HPM_P2
2023/09/17 00:01:10;;;;;;;15.55;12.27;;;24.60;73.60;;;;;;5115611;28;20046;-79
2023/09/17 00:03:36;;;;;;;16.73;12.35;;;24.60;73.70;;;;;;5115703;28;20036;-78
2023/09/17 00:06:02;;;;;;;15.88;12.32;;;24.60;73.70;;;;;;5115559;28;20339;-78
2023/09/17 00:08:27;;;;;;;13.40;11.10;;;24.60;73.70;;;;;;5105871;22;20066;-79
2023/09/17 00:10:53;;;;;;;15.55;11.90;;;24.50;73.80;;;;;;5076861;28;20044;-78
2023/09/17 00:13:19;;;;;;;15.60;11.45;;;24.50;73.80;;;;;;5095404;28;20032;-79
2023/09/17 00:15:45;;;;;;;16.90;11.00;;;24.50;73.60;;;;;;5094992;28;20563;-79
2023/09/17 00:18:12;;;;;;;19.75;11.35;;;24.50;73.50;;;;;;5095103;28;20027;-78
2023/09/17 00:20:37;;;;;;;17.35;11.05;;;24.50;74.60;;;;;;5095220;28;20123;-78
2023/09/17 00:23:03;;;;;;;14.02;11.20;;;24.50;73.90;;;;;;5076919;28;20051;-78
2023/09/17 00:25:29;;;;;;;13.95;10.90;;;24.50;73.80;;;;;;5094246;28;20039;-78
2023/09/17 00:27:55;;;;;;;16.52;11.68;;;24.40;73.70;;;;;;5094837;28;20028;-80
2023/09/17 00:30:21;;;;;;;13.70;11.05;;;24.40;74.00;;;;;;5095265;28;20089;-79
2023/09/17 00:32:47;;;;;;;16.88;12.43;;;24.30;74.20;;;;;;5095033;28;20043;-80
2023/09/17 00:35:13;;;;;;;13.88;11.88;;;24.30;74.30;;;;;;5094935;28;20028;-80
2023/09/17 00:37:40;;;;;;;14.70;10.70;;;24.30;74.30;;;;;;5076345;28;20491;-77
2023/09/17 00:40:09;;;;;;;15.73;11.68;;;24.30;74.30;;;;;;5094672;28;20028;-78
2023/09/17 00:42:40;;;;;;;16.23;11.57;;;24.30;74.50;;;;;;5094686;28;20036;-79
2023/09/17 00:45:06;;;;;;;16.23;12.48;;;24.30;74.50;;;;;;5094768;28;20028;-79
2023/09/17 00:47:32;;;;;;;16.42;11.93;;;24.40;74.60;;;;;;5094179;28;20513;-79
2023/09/17 00:49:59;;;;;;;17.13;11.98;;;24.30;74.50;;;;;;5094282;28;20028;-79
2023/09/17 00:52:26;;;;;;;22.83;12.65;;;24.30;74.40;;;;;;5094789;28;20125;-78
2023/09/17 00:54:54;;;;;;;16.95;11.73;;;24.30;74.50;;;;;;5094302;28;20062;-79
2023/09/17 00:57:21;;;;;;;13.05;11.20;;;24.40;74.30;;;;;;5094231;28;20195;-78
2023/09/17 00:59:47;;;;;;;15.15;12.50;;;24.30;74.40;;;;;;5075997;28;20427;-79
2023/09/17 01:02:20;;;;;;;16.35;10.75;;;24.30;74.30;;;;;;5094174;28;20028;-78
2023/09/17 01:04:49;;;;;;;12.45;10.65;;;24.30;74.30;;;;;;5094200;28;20032;-79
2023/09/17 01:07:19;;;;;;;14.18;10.85;;;24.30;74.40;;;;;;5075628;28;20044;-78
2023/09/17 01:09:45;;;;;;;15.02;11.30;;;24.20;74.00;;;;;;5075714;28;20441;-78
2023/09/17 01:12:11;;;;;;;13.68;10.73;;;24.20;74.10;;;;;;5093041;28;20032;-77
2023/09/17 01:14:38;;;;;;;13.40;10.82;;;24.20;73.90;;;;;;5093982;28;20067;-78
2023/09/17 01:17:07;;;;;;;18.17;11.93;;;24.10;73.80;;;;;;5114500;28;20044;-79
2023/09/17 01:19:34;;;;;;;14.13;11.68;;;24.10;74.40;;;;;;5096122;28;20059;-79
2023/09/17 01:22:12;;;;;;;17.23;11.45;;;24.10;73.90;;;;;;5114296;28;20032;-79
2023/09/17 01:25:15;;;;;;;16.15;11.50;;;24.10;73.90;;;;;;5114199;28;20473;-79
2023/09/17 01:27:45;;;;;;;15.43;10.88;;;24.00;74.00;;;;;;5113817;28;20038;-80
2023/09/17 01:30:17;;;;;;;11.68;9.73;;;24.10;73.70;;;;;;5114101;28;20043;-79
2023/09/17 01:32:43;;;;;;;16.75;10.38;;;24.00;73.50;;;;;;5113866;28;20078;-78
2023/09/17 01:35:14;;;;;;;17.23;11.30;;;24.00;73.60;;;;;;5114394;28;20039;-78
2023/09/17 01:37:44;;;;;;;19.25;11.35;;;23.90;73.80;;;;;;5113678;28;20024;-79
2023/09/17 01:40:14;;;;;;;13.73;10.93;;;24.00;73.70;;;;;;5113744;28;20039;-77
2023/09/17 01:42:43;;;;;;;12.55;11.15;;;24.00;74.00;;;;;;5095491;28;20100;-78
2023/09/17 01:45:13;;;;;;;14.40;10.80;;;24.00;73.70;;;;;;5113917;28;20047;-79
2023/09/17 01:47:41;;;;;;;16.55;11.57;;;24.00;73.80;;;;;;5114281;28;20599;-79
2023/09/17 01:50:08;;;;;;;19.90;11.73;;;23.90;73.80;;;;;;5125674;28;20138;-78
2023/09/17 01:52:34;;;;;;;13.85;10.70;;;23.80;74.00;;;;;;5118123;28;20088;-78
2023/09/17 01:55:03;;;;;;;15.73;11.65;;;23.80;74.00;;;;;;5116750;28;20020;-77
2023/09/17 01:57:30;;;;;;;16.67;11.30;;;23.80;74.40;;;;;;5113411;28;20031;-79
2023/09/17 01:59:56;;;;;;;16.77;11.38;;;23.70;74.20;;;;;;5113539;28;20023;-79
2023/09/17 02:02:21;;;;;;;17.00;11.15;;;23.70;74.60;;;;;;5113397;28;20031;-79
2023/09/17 02:04:47;;;;;;;14.88;11.35;;;23.70;74.70;;;;;;5094721;28;20482;-77
2023/09/17 02:07:17;;;;;;;17.15;11.38;;;23.70;74.90;;;;;;5112776;28;20052;-79
2023/09/17 02:09:42;;;;;;;15.98;12.15;;;23.70;74.80;;;;;;5113006;28;20030;-80
2023/09/17 02:12:08;;;;;;;19.33;10.88;;;23.70;74.70;;;;;;5112747;28;19915;-78
2023/09/17 02:14:34;;;;;;;18.67;11.82;;;23.70;74.70;;;;;;5113000;28;20038;-79
2023/09/17 02:17:00;;;;;;;14.23;11.00;;;23.70;74.70;;;;;;5113222;28;20448;-78
2023/09/17 02:19:27;;;;;;;19.20;11.50;;;23.70;74.90;;;;;;5113028;28;20027;-79
2023/09/17 02:21:53;;;;;;;12.38;11.07;;;23.70;74.90;;;;;;5113117;28;20425;-78
2023/09/17 02:24:22;;;;;;;12.60;11.05;;;23.70;74.90;;;;;;5112896;28;20110;-78
2023/09/17 02:26:47;;;;;;;15.50;10.80;;;23.70;75.10;;;;;;5112797;28;20024;-79
2023/09/17 02:29:13;;;;;;;14.32;10.45;;;23.60;75.20;;;;;;5112867;28;20035;-79
2023/09/17 02:31:39;;;;;;;17.52;10.70;;;23.60;75.20;;;;;;5112618;28;20074;-78
2023/09/17 02:34:05;;;;;;;18.98;10.52;;;23.60;75.30;;;;;;5112613;28;20152;-79
2023/09/17 02:36:31;;;;;;;15.63;10.95;;;23.60;75.20;;;;;;5112533;28;20082;-78
2023/09/17 02:38:57;;;;;;;14.60;10.70;;;23.70;75.30;;;;;;5112646;28;20495;-78
2023/09/17 02:41:23;;;;;;;15.10;11.05;;;23.70;75.10;;;;;;5112837;28;20027;-79
2023/09/17 02:43:48;;;;;;;15.75;10.95;;;23.70;75.10;;;;;;5112701;28;20046;-80
2023/09/17 02:46:14;;;;;;;15.15;11.20;;;23.70;75.10;;;;;;5112402;28;20044;-78
2023/09/17 02:48:40;;;;;;;15.30;11.50;;;23.70;75.20;;;;;;5112817;28;20032;-78
2023/09/17 02:51:06;;;;;;;16.70;11.05;;;23.70;75.20;;;;;;5116704;28;20054;-80
2023/09/17 02:53:31;;;;;;;12.88;10.75;;;23.70;75.20;;;;;;5116652;28;20027;-79
2023/09/17 02:55:58;;;;;;;18.88;10.60;;;23.60;75.00;;;;;;5116826;28;20462;-79
2023/09/17 02:58:24;;;;;;;13.98;10.70;;;23.60;74.90;;;;;;5116505;28;20102;-79
2023/09/17 03:00:50;;;;;;;14.82;10.93;;;23.50;75.10;;;;;;5116414;28;20051;-78
2023/09/17 03:03:16;;;;;;;15.45;10.85;;;23.50;75.20;;;;;;5116529;28;20073;-79
2023/09/17 03:05:46;;;;;;;13.45;10.07;;;23.40;75.10;;;;;;5116407;28;20028;-79
2023/09/17 03:08:12;;;;;;;13.98;10.30;;;23.40;75.00;;;;;;5116111;28;20056;-78
2023/09/17 03:10:42;;;;;;;12.15;9.90;;;23.40;75.00;;;;;;5116256;28;20391;-80
2023/09/17 03:13:12;;;;;;;12.65;9.82;;;23.30;74.90;;;;;;5116376;28;20475;-80
2023/09/17 03:15:38;;;;;;;13.20;9.55;;;23.30;75.00;;;;;;5097808;28;20036;-78
2023/09/17 03:18:04;;;;;;;13.85;9.63;;;23.30;75.10;;;;;;5116106;28;20368;-80
2023/09/17 03:20:33;;;;;;;16.52;9.65;;;23.30;75.30;;;;;;5097732;28;20039;-79
2023/09/17 03:23:02;;;;;;;16.23;10.23;;;23.30;75.10;;;;;;5115964;28;20031;-79
2023/09/17 03:25:31;;;;;;;14.25;11.13;;;23.40;74.90;;;;;;5116074;28;20024;-80
2023/09/17 03:27:59;;;;;;;14.38;10.55;;;23.30;75.60;;;;;;5115822;28;20032;-80
2023/09/17 03:30:25;;;;;;;14.23;10.70;;;23.30;75.10;;;;;;5115654;28;20089;-77
2023/09/17 03:32:51;;;;;;;18.38;9.90;;;23.30;75.00;;;;;;5115816;28;20063;-79
2023/09/17 03:35:17;;;;;;;14.38;10.75;;;23.30;75.10;;;;;;5115880;28;20035;-79
2023/09/17 03:37:43;;;;;;;14.38;11.00;;;23.30;75.20;;;;;;5116042;28;20101;-79
2023/09/17 03:40:11;;;;;;;15.35;10.10;;;23.30;75.40;;;;;;5116371;28;20028;-80
2023/09/17 03:42:41;;;;;;;15.13;10.85;;;23.30;75.40;;;;;;5116317;28;20028;-79
2023/09/17 03:45:09;;;;;;;13.85;10.68;;;23.30;75.10;;;;;;5115969;28;20034;-78
2023/09/17 03:47:39;;;;;;;14.40;10.43;;;23.30;75.20;;;;;;5116198;28;20027;-79
2023/09/17 03:50:06;;;;;;;18.52;10.85;;;23.30;75.30;;;;;;5116266;28;20421;-80
2023/09/17 03:52:34;;;;;;;12.93;9.77;;;23.20;75.50;;;;;;5115742;28;20028;-80
2023/09/17 03:55:01;;;;;;;16.27;10.68;;;23.20;75.40;;;;;;5115598;28;20024;-77
2023/09/17 03:57:27;;;;;;;14.95;10.55;;;23.20;75.50;;;;;;5115666;28;20027;-78
2023/09/17 03:59:54;;;;;;;15.00;10.05;;;23.10;75.50;;;;;;5115113;28;20034;-80
2023/09/17 04:02:20;;;;;;;14.73;10.50;;;23.10;75.70;;;;;;5097416;28;20036;-78
2023/09/17 04:04:47;;;;;;;14.30;10.32;;;23.10;75.80;;;;;;5116248;28;20066;-78
2023/09/17 04:07:13;;;;;;;16.35;10.30;;;23.10;75.90;;;;;;5115733;28;20456;-78
2023/09/17 04:09:38;;;;;;;15.40;10.35;;;23.10;75.80;;;;;;5115243;28;20032;-79
2023/09/17 04:12:05;;;;;;;16.58;10.15;;;23.00;75.80;;;;;;5115241;28;20039;-78
2023/09/17 04:14:31;;;;;;;15.68;10.73;;;23.00;75.90;;;;;;5115439;28;20039;-80
2023/09/17 04:17:02;;;;;;;17.85;10.18;;;23.10;75.70;;;;;;5115145;28;20038;-78
2023/09/17 04:19:29;;;;;;;13.02;9.68;;;23.00;75.70;;;;;;5115398;28;20031;-78
2023/09/17 04:21:55;;;;;;;12.85;9.73;;;23.00;75.70;;;;;;5115139;28;20097;-78
2023/09/17 04:24:21;;;;;;;13.13;9.48;;;23.00;75.60;;;;;;5114857;28;20120;-79
2023/09/17 04:26:47;;;;;;;13.55;10.20;;;23.00;75.70;;;;;;5115229;28;20541;-79
2023/09/17 04:29:13;;;;;;;13.10;9.80;;;23.10;75.70;;;;;;5115106;28;20035;-79
2023/09/17 04:31:39;;;;;;;13.20;9.90;;;23.10;75.60;;;;;;5114812;28;20039;-79
2023/09/17 04:34:05;;;;;;;16.70;9.63;;;23.10;75.70;;;;;;5115101;28;20031;-80
2023/09/17 04:36:30;;;;;;;16.80;11.00;;;23.10;75.70;;;;;;5115002;28;20085;-80
2023/09/17 04:38:56;;;;;;;14.60;10.68;;;23.00;75.80;;;;;;5114625;28;20107;-79
2023/09/17 04:41:22;;;;;;;14.43;10.20;;;22.90;75.90;;;;;;5114693;28;20032;-79
2023/09/17 04:43:47;;;;;;;12.00;9.88;;;22.90;76.10;;;;;;5114923;28;20390;-79
2023/09/17 04:46:13;;;;;;;14.63;9.32;;;22.90;76.10;;;;;;5115007;28;20031;-79
2023/09/17 04:48:39;;;;;;;13.85;9.93;;;22.90;76.10;;;;;;5114829;28;20110;-79
2023/09/17 04:51:06;;;;;;;18.38;10.70;;;22.90;76.10;;;;;;5114566;28;20039;-79
2023/09/17 04:53:32;;;;;;;14.68;10.30;;;22.90;76.10;;;;;;5114452;28;20032;-79
2023/09/17 04:55:58;;;;;;;12.73;9.25;;;22.90;75.90;;;;;;5114603;28;20028;-80
2023/09/17 04:58:24;;;;;;;15.15;9.68;;;22.90;76.00;;;;;;5096360;28;20491;-79
2023/09/17 05:00:50;;;;;;;14.95;10.35;;;23.00;75.90;;;;;;5114236;28;20047;-79
2023/09/17 05:03:16;;;;;;;15.55;10.40;;;22.90;75.70;;;;;;5114321;28;20061;-78
2023/09/17 05:05:42;;;;;;;14.32;9.63;;;22.90;75.90;;;;;;5096054;28;20074;-79
2023/09/17 05:08:08;;;;;;;15.73;9.43;;;22.90;75.80;;;;;;5114024;28;20044;-79
2023/09/17 05:10:33;;;;;;;15.32;9.82;;;22.90;75.90;;;;;;5114386;28;20046;-79
2023/09/17 05:12:59;;;;;;;13.63;9.73;;;22.90;75.90;;;;;;5095328;28;20088;-78
2023/09/17 05:15:25;;;;;;;13.00;9.13;;;22.90;75.50;;;;;;5114111;28;20133;-78
2023/09/17 05:17:51;;;;;;;12.63;10.00;;;22.90;75.60;;;;;;5095872;28;20113;-78
2023/09/17 05:20:18;;;;;;;12.45;8.93;;;22.90;75.50;;;;;;5113905;28;20024;-79
2023/09/17 05:22:44;;;;;;;12.52;8.93;;;22.90;75.40;;;;;;5114019;28;20031;-77
2023/09/17 05:25:09;;;;;;;12.52;9.40;;;23.00;75.40;;;;;;5114073;28;20494;-79
2023/09/17 05:27:35;;;;;;;16.50;9.13;;;23.00;75.40;;;;;;5113961;28;20455;-79
2023/09/17 05:30:01;;;;;;;17.05;8.57;;;23.00;75.30;;;;;;5113487;28;20042;-80
2023/09/17 05:32:28;;;;;;;11.82;8.55;;;23.10;75.30;;;;;;5113666;28;20039;-79
2023/09/17 05:34:53;;;;;;;11.63;8.10;;;23.10;75.10;;;;;;5113260;28;20113;-80
2023/09/17 05:37:19;;;;;;;14.35;8.30;;;23.10;75.20;;;;;;5113258;28;20460;-79
2023/09/17 05:39:45;;;;;;;12.23;9.38;;;23.20;75.30;;;;;;5113930;28;20477;-77
2023/09/17 05:42:10;;;;;;;14.73;9.38;;;23.30;75.30;;;;;;5113652;28;20502;-78
2023/09/17 05:44:36;;;;;;;14.50;9.13;;;23.30;75.00;;;;;;5113935;28;20067;-78
2023/09/17 05:47:02;;;;;;;12.95;8.88;;;23.40;75.20;;;;;;5113644;28;20485;-78
2023/09/17 05:49:28;;;;;;;13.18;9.73;;;23.40;74.90;;;;;;5095425;28;20402;-80
2023/09/17 05:51:53;;;;;;;14.70;10.02;;;23.50;74.90;;;;;;5113655;28;20043;-79
2023/09/17 05:54:21;;;;;;;12.40;9.48;;;23.50;74.90;;;;;;5095194;28;20104;-79
2023/09/17 05:56:47;;;;;;;15.95;9.10;;;23.60;74.80;;;;;;5113747;28;20471;-78
2023/09/17 05:59:12;;;;;;;16.10;9.57;;;23.80;74.40;;;;;;5113162;28;20036;-80
2023/09/17 06:01:38;;;;;;;16.05;9.90;;;24.00;73.90;;;;;;5113557;28;20031;-79
2023/09/17 06:04:04;;;;;;;13.45;9.25;;;24.10;73.80;;;;;;5113302;28;20043;-79
2023/09/17 06:06:30;;;;;;;16.58;10.15;;;24.30;73.60;;;;;;5094683;28;20036;-79
2023/09/17 06:08:55;;;;;;;13.23;9.77;;;24.40;73.30;;;;;;5113394;28;20087;-79
2023/09/17 06:11:21;;;;;;;13.75;9.95;;;24.50;73.40;;;;;;5113184;28;20108;-79
2023/09/17 06:13:47;;;;;;;12.50;9.85;;;24.70;73.00;;;;;;5113046;28;20028;-79
2023/09/17 06:16:12;;;;;;;12.95;10.27;;;24.80;72.90;;;;;;5113063;28;20032;-79
2023/09/17 06:18:38;;;;;;;14.95;9.50;;;24.90;72.70;;;;;;5094765;28;20391;-80
2023/09/17 06:21:04;;;;;;;11.05;9.40;;;25.00;72.60;;;;;;5112948;28;20038;-80
2023/09/17 06:23:29;;;;;;;13.52;10.10;;;25.10;72.20;;;;;;5112295;28;20031;-79
2023/09/17 06:25:55;;;;;;;13.18;9.57;;;25.30;71.90;;;;;;5113331;28;20028;-80
2023/09/17 06:28:21;;;;;;;13.40;8.65;;;25.30;71.60;;;;;;5113120;28;20043;-78
2023/09/17 06:30:48;;;;;;;13.63;8.10;;;25.50;71.30;;;;;;5112804;28;20467;-80
2023/09/17 06:33:14;;;;;;;13.90;9.40;;;25.70;70.60;;;;;;5112955;28;20471;-78
2023/09/17 06:35:39;;;;;;;17.45;8.65;;;25.90;70.00;;;;;;5112833;28;20035;-79
2023/09/17 06:38:05;;;;;;;12.55;8.60;;;26.10;69.50;;;;;;5112737;28;20030;-80
2023/09/17 06:40:31;;;;;;;12.90;9.02;;;26.20;68.80;;;;;;5113082;28;20055;-81
2023/09/17 06:42:57;;;;;;;11.68;8.40;;;26.30;68.60;;;;;;5113207;28;20060;-79
2023/09/17 06:45:22;;;;;;;13.68;8.48;;;26.40;68.10;;;;;;5094366;28;20058;-80
2023/09/17 06:47:49;;;;;;;12.75;8.73;;;26.40;68.00;;;;;;5113126;28;20032;-80
2023/09/17 06:50:14;;;;;;;15.93;8.70;;;26.50;67.90;;;;;;5113012;28;20134;-81
2023/09/17 06:52:40;;;;;;;17.13;9.02;;;26.60;67.80;;;;;;5112752;28;20183;-79
2023/09/17 06:55:06;;;;;;;11.77;8.30;;;26.60;67.20;;;;;;5112665;28;20024;-79
2023/09/17 06:57:32;;;;;;;17.02;8.32;;;26.80;67.20;;;;;;5112742;28;20364;-79
2023/09/17 06:59:58;;;;;;;13.85;7.80;;;26.90;66.70;;;;;;5112924;28;20391;-80
2023/09/17 07:02:24;;;;;;;14.00;8.48;;;27.00;66.60;;;;;;5112615;28;20040;-79
2023/09/17 07:04:50;;;;;;;14.15;7.25;;;27.10;66.00;;;;;;5112210;28;20114;-79
2023/09/17 07:07:15;;;;;;;14.60;8.43;;;27.20;65.50;;;;;;5093977;28;20143;-78
2023/09/17 07:09:41;;;;;;;13.82;7.43;;;27.40;65.40;;;;;;5112601;28;20031;-80
2023/09/17 07:12:07;;;;;;;10.80;7.38;;;27.40;64.80;;;;;;5112247;28;20040;-79
2023/09/17 07:14:33;;;;;;;15.70;8.48;;;27.50;64.50;;;;;;5094030;28;20035;-79
2023/09/17 07:16:59;;;;;;;13.88;7.60;;;27.50;64.50;;;;;;5112359;28;20038;-79
2023/09/17 07:19:24;;;;;;;12.57;7.72;;;27.60;64.20;;;;;;5112809;28;20050;-80
2023/09/17 07:21:50;;;;;;;12.43;7.45;;;27.60;63.60;;;;;;5112013;28;20093;-79
2023/09/17 07:24:16;;;;;;;11.40;7.15;;;27.70;63.70;;;;;;5094022;28;20032;-79
2023/09/17 07:26:42;;;;;;;13.35;7.95;;;27.90;63.30;;;;;;5112250;28;20049;-80
2023/09/17 07:29:08;;;;;;;12.30;6.80;;;27.90;62.80;;;;;;5112217;28;20024;-80
2023/09/17 07:31:33;;;;;;;16.38;7.57;;;27.90;62.80;;;;;;5111948;28;20040;-80
2023/09/17 07:33:59;;;;;;;12.38;7.35;;;28.00;62.50;;;;;;5112371;28;20518;-79
2023/09/17 07:36:25;;;;;;;12.35;7.18;;;28.00;62.40;;;;;;5115718;28;20031;-79
2023/09/17 07:38:51;;;;;;;16.70;6.60;;;27.90;62.30;;;;;;5116580;28;20386;-81
2023/09/17 07:41:17;;;;;;;11.50;6.80;;;27.90;62.20;;;;;;5116051;28;20526;-80
2023/09/17 07:43:43;;;;;;;21.65;7.10;;;27.90;62.10;;;;;;5115947;28;20146;-80
2023/09/17 07:46:13;;;;;;;17.05;8.25;;;27.90;62.20;;;;;;5115923;28;20391;-80
2023/09/17 07:48:39;;;;;;;15.43;6.93;;;27.90;61.90;;;;;;5116101;28;20023;-79
2023/09/17 07:51:05;;;;;;;14.07;7.63;;;27.90;61.90;;;;;;5115596;28;20035;-81
2023/09/17 07:53:32;;;;;;;13.18;7.30;;;27.90;61.80;;;;;;5097742;28;20043;-80
2023/09/17 07:55:58;;;;;;;14.80;7.15;;;27.80;61.70;;;;;;5115771;28;20020;-77
2023/09/17 07:58:24;;;;;;;12.10;6.90;;;27.80;61.90;;;;;;5117864;28;20036;-79
2023/09/17 08:00:50;;;;;;;15.15;8.52;;;27.70;61.80;;;;;;5115870;28;20046;-77
2023/09/17 08:03:17;;;;;;;11.88;6.47;;;27.70;62.00;;;;;;5115377;28;20161;-79
2023/09/17 08:05:47;;;;;;;13.95;7.28;;;27.70;62.20;;;;;;5115263;28;20028;-78
2023/09/17 08:08:14;;;;;;;13.85;7.55;;;27.70;62.30;;;;;;5115428;28;20043;-79
2023/09/17 08:10:40;;;;;;;13.32;7.75;;;27.70;62.40;;;;;;5115288;28;20398;-80
2023/09/17 08:13:06;;;;;;;12.00;7.50;;;27.70;62.50;;;;;;5115215;28;20095;-79
2023/09/17 08:15:32;;;;;;;11.93;7.53;;;27.60;62.40;;;;;;5097025;28;20126;-79
2023/09/17 08:17:58;;;;;;;12.10;7.15;;;27.60;62.60;;;;;;5114925;28;20078;-80
2023/09/17 08:20:24;;;;;;;15.95;7.70;;;27.50;62.70;;;;;;5115148;28;20040;-80
2023/09/17 08:22:53;;;;;;;12.88;7.80;;;27.60;62.70;;;;;;5115185;28;20088;-78
2023/09/17 08:25:19;;;;;;;21.80;8.00;;;27.50;62.50;;;;;;5114822;28;20422;-79
2023/09/17 08:27:47;;;;;;;13.25;7.40;;;27.50;62.40;;;;;;5115078;28;20031;-79
2023/09/17 08:30:13;;;;;;;12.98;7.13;;;27.50;62.90;;;;;;5114874;28;20088;-78
2023/09/17 08:32:44;;;;;;;13.38;7.43;;;27.50;62.40;;;;;;5115191;28;20035;-77
2023/09/17 08:35:13;;;;;;;13.77;7.63;;;27.40;62.10;;;;;;5096516;28;20543;-80
2023/09/17 08:37:39;;;;;;;11.88;7.18;;;27.50;62.50;;;;;;5114535;28;20032;-78
2023/09/17 08:40:13;;;;;;;14.77;6.75;;;27.50;61.70;;;;;;5114727;28;20024;-78
2023/09/17 08:42:42;;;;;;;10.00;6.00;;;27.50;61.80;;;;;;5114507;28;20031;-79
2023/09/17 08:45:10;;;;;;;12.48;6.25;;;27.50;60.60;;;;;;5114433;28;20035;-79
2023/09/17 08:47:38;;;;;;;12.63;6.95;;;27.50;60.60;;;;;;5095132;28;20467;-79
2023/09/17 08:50:07;;;;;;;10.68;5.50;;;27.60;60.20;;;;;;5114248;28;20024;-78
2023/09/17 08:52:35;;;;;;;10.80;6.65;;;27.60;59.90;;;;;;5114289;28;20032;-80
2023/09/17 08:55:04;;;;;;;11.23;6.07;;;27.70;59.40;;;;;;5114443;28;20502;-78
2023/09/17 08:57:31;;;;;;;11.65;5.93;;;27.80;59.20;;;;;;5096050;28;20395;-79
2023/09/17 09:00:10;;;;;;;10.73;5.50;;;27.80;58.70;;;;;;5114438;28;20088;-82
2023/09/17 09:02:53;;;;;;;15.35;6.90;;;27.90;58.60;;;;;;5114204;28;20036;-79
2023/09/17 09:05:22;;;;;;;13.38;5.82;;;27.90;58.20;;;;;;5096066;28;20042;-81
2023/09/17 09:07:49;;;;;;;9.15;6.10;;;27.90;58.30;;;;;;5095609;28;20043;-79
2023/09/17 09:10:16;;;;;;;10.25;5.78;;;27.90;58.20;;;;;;5113815;28;20035;-79
2023/09/17 09:12:42;;;;;;;11.82;6.15;;;27.90;58.10;;;;;;5113939;28;20088;-80
2023/09/17 09:15:12;;;;;;;11.35;6.45;;;27.90;58.10;;;;;;5113585;28;20376;-77
2023/09/17 09:17:38;;;;;;;13.48;6.03;;;27.90;57.90;;;;;;5114238;28;20042;-80
2023/09/17 09:20:14;;;;;;;13.40;6.53;;;28.00;57.90;;;;;;5113655;28;20116;-81
2023/09/17 09:22:40;;;;;;;11.88;5.85;;;28.00;57.60;;;;;;5114013;28;20031;-78
2023/09/17 09:25:09;;;;;;;13.68;6.18;;;28.00;57.50;;;;;;5114194;28;20039;-78
2023/09/17 09:27:37;;;;;;;15.00;6.50;;;28.10;57.30;;;;;;5115028;28;20031;-79
2023/09/17 09:30:11;;;;;;;10.75;5.57;;;28.20;57.20;;;;;;5115870;28;20031;-79
2023/09/17 09:32:37;;;;;;;12.13;5.80;;;28.30;56.90;;;;;;5095869;28;20040;-78
2023/09/17 09:35:05;;;;;;;13.77;6.20;;;28.40;56.70;;;;;;5095360;28;20991;-79
2023/09/17 09:37:31;;;;;;;16.17;5.47;;;28.50;56.40;;;;;;5113864;28;20031;-79
2023/09/17 09:39:58;;;;;;;13.60;6.35;;;28.50;56.20;;;;;;5095783;28;20071;-80
2023/09/17 09:42:25;;;;;;;10.82;6.45;;;28.60;55.90;;;;;;5113376;28;20106;-79
2023/09/17 09:44:52;;;;;;;14.38;5.90;;;28.60;55.70;;;;;;5095014;28;20035;-80
2023/09/17 09:47:23;;;;;;;16.85;6.55;;;28.70;55.60;;;;;;5113281;28;20046;-79
2023/09/17 09:49:49;;;;;;;11.85;6.05;;;28.70;55.20;;;;;;5113541;28;20038;-81
2023/09/17 09:52:15;;;;;;;14.40;6.50;;;28.80;55.20;;;;;;5095229;28;20555;-79
2023/09/17 09:54:42;;;;;;;13.98;5.78;;;28.70;55.10;;;;;;5113468;28;20483;-81
2023/09/17 09:57:10;;;;;;;13.43;5.65;;;28.80;54.90;;;;;;5113271;28;20096;-78
2023/09/17 09:59:36;;;;;;;16.80;6.60;;;28.90;54.80;;;;;;5112663;28;20032;-80
2023/09/17 10:02:03;;;;;;;13.50;6.15;;;28.90;54.70;;;;;;5112714;28;20077;-79
2023/09/17 10:04:29;;;;;;;16.88;6.57;;;29.00;54.70;;;;;;5113263;28;20077;-80
2023/09/17 10:06:56;;;;;;;11.40;6.43;;;29.10;54.60;;;;;;5112869;28;20047;-78
2023/09/17 10:09:25;;;;;;;12.35;6.80;;;29.20;54.30;;;;;;5113116;28;20101;-79
2023/09/17 10:11:53;;;;;;;14.75;7.05;;;29.30;54.20;;;;;;5113165;28;20116;-80
2023/09/17 10:14:21;;;;;;;13.05;5.95;;;29.30;54.20;;;;;;5113232;28;20171;-80
2023/09/17 10:16:49;;;;;;;11.75;6.05;;;29.40;53.90;;;;;;5113173;28;20039;-79
2023/09/17 10:19:20;;;;;;;12.55;6.05;;;29.50;54.00;;;;;;5113074;28;20027;-78
2023/09/17 10:21:51;;;;;;;13.60;6.30;;;29.60;53.50;;;;;;5112476;28;20055;-79
2023/09/17 10:24:17;;;;;;;12.02;6.57;;;29.60;53.40;;;;;;5112604;28;20034;-80
2023/09/17 10:26:44;;;;;;;13.98;6.50;;;29.60;53.00;;;;;;5112666;28;20097;-80
2023/09/17 10:29:15;;;;;;;12.05;5.68;;;29.70;52.80;;;;;;5112711;28;20154;-77
2023/09/17 10:31:41;;;;;;;11.48;5.78;;;29.80;52.50;;;;;;5094471;28;20047;-79
2023/09/17 10:34:10;;;;;;;17.80;5.75;;;29.80;52.60;;;;;;5113144;28;20024;-79
2023/09/17 10:36:38;;;;;;;16.08;6.00;;;29.90;52.60;;;;;;5112839;28;20032;-78
2023/09/17 10:39:09;;;;;;;12.48;6.20;;;29.90;52.20;;;;;;5112742;28;20048;-80
2023/09/17 10:41:37;;;;;;;12.82;6.30;;;30.00;52.40;;;;;;5112730;28;20066;-80
2023/09/17 10:44:04;;;;;;;13.02;6.22;;;30.10;52.00;;;;;;5113034;28;20036;-78
2023/09/17 10:46:31;;;;;;;14.77;6.45;;;30.10;51.80;;;;;;5112928;28;20031;-79
2023/09/17 10:48:58;;;;;;;16.60;6.80;;;30.20;51.80;;;;;;5112514;28;20491;-79
2023/09/17 10:51:26;;;;;;;11.70;5.97;;;30.30;51.90;;;;;;5112695;28;20044;-78
2023/09/17 10:53:53;;;;;;;15.95;5.88;;;30.40;51.90;;;;;;5112629;28;20062;-79
2023/09/17 10:56:20;;;;;;;12.00;5.53;;;30.50;51.50;;;;;;5112706;28;20067;-79
2023/09/17 10:58:49;;;;;;;17.30;6.47;;;30.50;51.40;;;;;;5112471;28;20056;-79
2023/09/17 11:01:20;;;;;;;14.40;6.55;;;30.60;51.40;;;;;;5112503;28;20024;-80
2023/09/17 11:03:51;;;;;;;11.45;5.82;;;30.60;51.20;;;;;;5113105;28;20035;-80
2023/09/17 11:06:23;;;;;;;12.32;6.53;;;30.60;51.10;;;;;;5112658;28;20028;-78
2023/09/17 11:08:54;;;;;;;17.27;7.32;;;30.60;51.20;;;;;;5112681;28;20046;-79
2023/09/17 11:11:25;;;;;;;14.70;6.18;;;30.60;51.20;;;;;;5115569;28;20084;-79
2023/09/17 11:13:52;;;;;;;14.57;7.05;;;30.60;51.30;;;;;;5116364;28;20043;-79
2023/09/17 11:16:24;;;;;;;16.33;6.38;;;30.60;51.20;;;;;;5116476;28;20023;-78
2023/09/17 11:19:08;;;;;;;14.27;7.10;;;30.70;51.40;;;;;;5116896;28;20036;-79
2023/09/17 11:21:39;;;;;;;12.68;6.40;;;30.60;51.20;;;;;;5116613;28;20028;-80
2023/09/17 11:24:08;;;;;;;12.68;6.20;;;30.70;51.20;;;;;;5116342;28;20081;-80
2023/09/17 11:26:35;;;;;;;14.80;7.30;;;30.70;50.80;;;;;;5098274;28;20043;-78
2023/09/17 11:29:07;;;;;;;13.45;7.22;;;30.70;51.00;;;;;;5117013;28;20521;-79
2023/09/17 11:31:37;;;;;;;14.65;6.68;;;30.80;51.00;;;;;;5116331;28;20050;-79
2023/09/17 11:34:11;;;;;;;13.55;5.88;;;30.80;51.00;;;;;;5097839;28;20042;-80
2023/09/17 11:36:36;;;;;;;14.88;6.40;;;30.90;50.90;;;;;;5097790;28;20505;-79
2023/09/17 11:39:08;;;;;;;17.25;6.10;;;30.90;50.90;;;;;;5116469;28;20063;-78
2023/09/17 11:41:42;;;;;;;11.40;6.13;;;31.00;50.60;;;;;;5116714;28;20038;-79
2023/09/17 11:44:08;;;;;;;;;;;31.00;50.60;;;;;;5116815;28;20043;-80
2023/09/17 11:46:34;;;;;;;14.85;6.32;;;31.10;50.30;;;;;;5097979;28;19903;-78
2023/09/17 11:49:01;;;;;;;16.83;7.43;;;31.20;50.70;;;;;;5115964;28;20032;-79
2023/09/17 11:51:29;;;;;;;12.43;6.43;;;31.30;50.20;;;;;;5116033;28;20441;-80
2023/09/17 11:54:01;;;;;;;17.77;6.53;;;31.40;50.30;;;;;;5116200;28;20032;-78
2023/09/17 11:56:28;;;;;;;13.02;6.05;;;31.40;49.80;;;;;;5115919;28;20028;-78
2023/09/17 11:58:59;;;;;;;10.27;6.15;;;31.50;50.10;;;;;;5115821;28;20455;-79
2023/09/17 12:01:28;;;;;;;13.85;5.80;;;31.50;49.90;;;;;;5115797;28;20063;-80
2023/09/17 12:03:54;;;;;;;12.13;5.78;;;31.40;50.10;;;;;;5115623;28;20031;-78
2023/09/17 12:06:20;;;;;;;9.65;5.80;;;31.40;50.10;;;;;;5115579;28;20131;-78
2023/09/17 12:08:47;;;;;;;12.35;6.18;;;31.50;50.30;;;;;;5115240;28;20052;-81
2023/09/17 12:11:22;;;;;;;11.68;5.93;;;31.50;50.40;;;;;;5115195;28;20119;-79
2023/09/17 12:13:53;;;;;;;12.70;6.65;;;31.50;49.10;;;;;;5096759;28;20031;-79
2023/09/17 12:16:29;;;;;;;12.25;6.18;;;31.50;49.20;;;;;;5115259;28;20032;-81
2023/09/17 12:18:55;;;;;;;10.57;6.00;;;31.60;50.40;;;;;;5115342;28;20487;-80
2023/09/17 12:21:25;;;;;;;12.73;6.10;;;31.60;50.40;;;;;;5114045;28;20437;-78
2023/09/17 12:29:38;;;;;;;11.05;6.13;;;31.60;48.70;;;;;;5080609;28;20111;-79
2023/09/17 12:32:05;;;;;;;9.18;6.30;;;31.60;50.70;;;;;;5114977;28;20488;-78
2023/09/17 12:34:34;;;;;;;10.85;6.05;;;31.70;50.20;;;;;;5115205;28;20475;-80
2023/09/17 12:36:59;;;;;;;8.77;5.35;;;31.70;49.80;;;;;;5096346;28;20097;-79
2023/09/17 12:39:25;;;;;;;9.60;5.43;;;31.70;49.60;;;;;;5114598;28;20036;-79